Time;durP1;ratioP1;P1;durP2;ratioP2;P2;SDS_P1;SDS_P2;PMS_P1;PMS_P2;Temp;Humidity;BMP_temperature;BMP_pressure;BME280_temperature;BME280_humidity;BME280_pressure;Samples;Min_cycle;Max_cycle;Signal;HPM_P1;HPM_P2
2022/07/08 00:01:00;;;;;;;61.63;34.47;;;27.60;99.90;;;;;;5035593;28;20086;-64
2022/07/08 00:03:26;;;;;;;77.57;41.47;;;27.60;99.90;;;;;;5035812;28;20531;-64
2022/07/08 00:05:53;;;;;;;97.70;49.42;;;27.60;99.90;;;;;;5035770;28;20033;-63
2022/07/08 00:08:20;;;;;;;137.55;61.42;;;27.60;99.90;;;;;;5035842;28;20033;-64
2022/07/08 00:10:47;;;;;;;256.40;97.63;;;27.60;99.90;;;;;;5035576;28;20473;-64
2022/07/08 00:13:13;;;;;;;231.25;85.90;;;27.70;99.90;;;;;;5035957;28;20083;-63
2022/07/08 00:15:40;;;;;;;364.75;127.82;;;27.70;99.90;;;;;;5035774;28;20102;-64
2022/07/08 00:18:07;;;;;;;340.08;127.90;;;27.70;99.90;;;;;;5035681;28;20018;-64
2022/07/08 00:20:34;;;;;;;479.50;180.80;;;27.70;99.90;;;;;;5035563;28;20013;-64
2022/07/08 00:23:00;;;;;;;429.80;163.98;;;27.80;99.90;;;;;;5035315;28;20029;-63
2022/07/08 00:25:27;;;;;;;70.82;41.83;;;27.80;99.90;;;;;;5035480;28;20049;-63
2022/07/08 00:27:53;;;;;;;117.20;57.72;;;27.80;99.90;;;;;;5035414;28;20469;-64
2022/07/08 00:30:20;;;;;;;82.50;51.63;;;27.90;99.90;;;;;;5035202;28;20445;-64
2022/07/08 00:32:46;;;;;;;74.15;45.97;;;27.90;99.90;;;;;;5035372;28;20095;-67
2022/07/08 00:35:13;;;;;;;75.40;45.53;;;27.90;99.90;;;;;;5035111;28;20029;-63
2022/07/08 00:37:39;;;;;;;63.15;41.60;;;27.90;99.90;;;;;;5035028;28;20076;-64
2022/07/08 00:40:06;;;;;;;63.70;39.50;;;27.90;99.90;;;;;;5035199;28;20021;-64
2022/07/08 00:42:33;;;;;;;67.63;42.05;;;27.90;99.90;;;;;;5035020;28;20112;-64
2022/07/08 00:45:00;;;;;;;53.75;32.78;;;27.90;99.90;;;;;;5034947;28;20359;-64
2022/07/08 00:47:26;;;;;;;48.63;33.40;;;28.00;99.90;;;;;;5035083;28;20082;-64
2022/07/08 00:49:53;;;;;;;51.95;31.35;;;28.00;99.90;;;;;;5034865;28;20025;-63
2022/07/08 00:52:20;;;;;;;51.35;29.50;;;28.00;99.90;;;;;;5034654;28;20022;-64
2022/07/08 00:54:46;;;;;;;56.78;32.55;;;27.90;99.90;;;;;;5034867;28;20017;-64
2022/07/08 00:57:14;;;;;;;46.45;29.45;;;28.00;99.90;;;;;;5034918;28;20025;-64
2022/07/08 00:59:42;;;;;;;51.25;30.30;;;28.00;99.90;;;;;;5034759;28;20048;-65
2022/07/08 01:02:09;;;;;;;49.78;31.42;;;28.00;99.90;;;;;;5034833;28;20103;-65
2022/07/08 01:04:36;;;;;;;78.22;51.97;;;28.00;99.90;;;;;;5039691;28;20038;-65
2022/07/08 01:07:02;;;;;;;168.52;109.20;;;28.10;99.90;;;;;;5042647;28;20052;-65
2022/07/08 01:09:29;;;;;;;81.53;49.15;;;28.10;99.90;;;;;;5054507;28;20021;-65
2022/07/08 01:11:56;;;;;;;69.85;41.38;;;28.10;99.90;;;;;;5054414;28;20036;-65
2022/07/08 01:14:22;;;;;;;187.88;111.20;;;28.10;99.90;;;;;;5054150;28;20466;-65
2022/07/08 01:16:49;;;;;;;81.53;49.53;;;28.10;99.90;;;;;;5054516;28;20025;-65
2022/07/08 01:19:15;;;;;;;87.75;56.28;;;28.20;99.90;;;;;;5042588;28;20014;-65
2022/07/08 01:21:42;;;;;;;74.88;50.50;;;28.30;99.90;;;;;;5034265;28;20079;-65
2022/07/08 01:24:08;;;;;;;91.80;59.83;;;28.40;99.90;;;;;;5034345;28;20101;-65
2022/07/08 01:26:35;;;;;;;79.50;54.50;;;28.50;99.90;;;;;;5034539;28;20069;-65
2022/07/08 01:29:01;;;;;;;62.90;42.85;;;28.60;99.90;;;;;;5050508;28;20066;-65
2022/07/08 01:31:28;;;;;;;66.43;39.30;;;28.60;99.90;;;;;;5043191;28;20029;-65
2022/07/08 01:33:55;;;;;;;55.38;35.22;;;28.60;99.90;;;;;;5034100;28;20560;-64
2022/07/08 01:36:21;;;;;;;71.65;46.80;;;28.60;99.90;;;;;;5034097;28;20017;-64
2022/07/08 01:38:48;;;;;;;60.95;39.35;;;28.60;99.90;;;;;;5034274;28;20026;-65
2022/07/08 01:41:14;;;;;;;66.07;41.78;;;28.50;99.90;;;;;;5034114;28;20022;-65
2022/07/08 01:43:41;;;;;;;58.40;39.20;;;28.60;99.90;;;;;;5034044;28;20021;-64
2022/07/08 01:46:08;;;;;;;64.60;39.03;;;28.60;99.90;;;;;;5034006;28;20470;-64
2022/07/08 01:48:34;;;;;;;61.47;39.97;;;28.70;99.90;;;;;;5033840;28;20108;-65
2022/07/08 01:51:01;;;;;;;98.65;39.22;;;28.80;99.90;;;;;;5033816;28;20028;-65
2022/07/08 01:53:27;;;;;;;49.13;31.48;;;28.90;99.90;;;;;;5033698;28;20017;-65
2022/07/08 01:55:54;;;;;;;55.90;35.75;;;29.00;99.90;;;;;;5033951;28;20080;-65
2022/07/08 01:58:21;;;;;;;55.47;33.92;;;29.00;99.90;;;;;;5039962;28;20021;-64
2022/07/08 02:00:47;;;;;;;55.15;36.70;;;29.10;99.90;;;;;;5052805;28;20025;-65
2022/07/08 02:03:14;;;;;;;50.25;33.72;;;29.20;99.90;;;;;;5053582;28;20473;-65
2022/07/08 02:05:40;;;;;;;49.10;31.70;;;29.30;99.90;;;;;;5053842;28;20028;-65
2022/07/08 02:08:07;;;;;;;55.78;35.35;;;29.10;99.90;;;;;;5053467;28;20146;-65
2022/07/08 02:13:20;;;;;;;52.08;36.35;;;29.30;99.90;;;;;;5029271;28;20033;-65
2022/07/08 02:15:47;;;;;;;53.53;36.13;;;29.40;99.90;;;;;;5053592;28;20032;-64
2022/07/08 02:18:14;;;;;;;50.05;38.47;;;29.50;99.90;;;;;;5039674;28;20033;-64
2022/07/08 02:20:40;;;;;;;62.67;40.40;;;29.50;99.90;;;;;;5036927;28;20021;-65
2022/07/08 02:23:07;;;;;;;53.67;38.65;;;29.50;99.90;;;;;;5049456;28;20024;-64
2022/07/08 02:25:34;;;;;;;71.65;51.50;;;29.60;99.90;;;;;;5041126;28;20026;-66
2022/07/08 02:28:00;;;;;;;58.25;42.97;;;29.70;99.90;;;;;;5043088;28;20466;-64
2022/07/08 02:30:27;;;;;;;61.10;40.97;;;29.70;99.90;;;;;;5042399;28;20466;-64
2022/07/08 02:32:53;;;;;;;397.80;225.90;;;29.70;99.90;;;;;;5041021;28;20021;-63
2022/07/08 02:35:20;;;;;;;170.30;111.78;;;29.70;99.90;;;;;;5042758;28;20017;-63
2022/07/08 02:37:46;;;;;;;115.15;80.47;;;29.90;99.90;;;;;;5042271;28;20039;-63
2022/07/08 02:40:13;;;;;;;67.85;46.45;;;29.90;99.90;;;;;;5041108;28;20441;-63
2022/07/08 02:42:39;;;;;;;68.35;48.45;;;29.80;99.90;;;;;;5043033;28;20377;-63
2022/07/08 02:45:06;;;;;;;70.45;47.70;;;29.90;99.90;;;;;;5041978;28;20474;-64
2022/07/08 02:47:33;;;;;;;67.28;44.60;;;30.00;99.90;;;;;;5041135;28;20028;-65
2022/07/08 02:49:59;;;;;;;59.05;44.10;;;30.00;99.90;;;;;;5043300;28;20025;-67
2022/07/08 02:52:26;;;;;;;62.38;44.05;;;30.10;99.90;;;;;;5041976;28;20489;-67
2022/07/08 02:54:52;;;;;;;70.70;48.08;;;30.10;99.90;;;;;;5041165;28;20036;-64
2022/07/08 02:57:19;;;;;;;60.85;45.45;;;30.10;99.90;;;;;;5041130;28;20025;-64
2022/07/08 02:59:45;;;;;;;69.68;46.78;;;30.00;99.90;;;;;;5041838;28;20020;-64
2022/07/08 03:02:12;;;;;;;66.15;48.08;;;30.00;99.90;;;;;;5042664;28;20049;-63
2022/07/08 03:04:38;;;;;;;89.07;74.32;;;30.00;99.90;;;;;;5040973;28;20117;-64
2022/07/08 03:07:05;;;;;;;60.55;47.33;;;30.10;99.90;;;;;;5040613;28;20049;-64
2022/07/08 03:09:32;;;;;;;70.20;48.35;;;30.30;99.90;;;;;;5052759;28;20033;-63
2022/07/08 03:11:58;;;;;;;86.72;62.20;;;30.30;99.90;;;;;;5040557;28;20506;-64
2022/07/08 03:14:25;;;;;;;72.05;52.28;;;30.40;99.90;;;;;;5045267;28;20112;-64
2022/07/08 03:16:51;;;;;;;71.68;53.90;;;30.40;99.90;;;;;;5046040;28;20068;-63
2022/07/08 03:19:18;;;;;;;67.80;51.67;;;30.60;99.90;;;;;;5044864;28;20086;-64
2022/07/08 03:21:44;;;;;;;70.80;49.10;;;30.60;99.90;;;;;;5044537;28;20029;-63
2022/07/08 03:24:12;;;;;;;71.32;53.92;;;30.60;99.90;;;;;;5045469;28;20047;-64
2022/07/08 03:26:38;;;;;;;79.65;53.33;;;30.70;99.90;;;;;;5046328;28;20021;-63
2022/07/08 03:29:05;;;;;;;83.32;54.60;;;30.80;99.90;;;;;;5044366;28;20024;-64
2022/07/08 03:31:31;;;;;;;79.20;56.00;;;30.90;99.90;;;;;;5050106;28;20024;-64
2022/07/08 03:33:58;;;;;;;76.38;52.33;;;31.00;99.90;;;;;;5044644;28;20466;-63
2022/07/08 03:36:25;;;;;;;78.03;55.22;;;30.90;99.90;;;;;;5044998;28;20094;-64
2022/07/08 03:38:51;;;;;;;72.00;52.45;;;31.00;99.90;;;;;;5042913;28;20033;-68
2022/07/08 03:41:20;;;;;;;72.43;53.15;;;31.00;99.90;;;;;;5036225;28;20394;-63
2022/07/08 03:43:50;;;;;;;65.25;53.05;;;31.10;99.90;;;;;;5037398;28;20025;-63
2022/07/08 03:46:17;;;;;;;73.10;54.80;;;31.10;99.90;;;;;;5045458;28;20021;-63
2022/07/08 03:48:43;;;;;;;74.25;56.58;;;31.20;99.90;;;;;;5046747;28;20025;-63
2022/07/08 03:51:10;;;;;;;69.63;52.88;;;31.30;99.90;;;;;;5039850;28;20488;-63
2022/07/08 03:53:37;;;;;;;74.47;56.13;;;31.30;99.90;;;;;;5044946;28;20017;-63
2022/07/08 03:56:05;;;;;;;71.60;52.50;;;31.40;99.90;;;;;;5046449;28;20044;-63
2022/07/08 03:58:33;;;;;;;75.78;56.08;;;31.40;99.90;;;;;;5045218;28;20025;-63
2022/07/08 04:01:00;;;;;;;79.78;55.85;;;31.50;99.90;;;;;;5044363;28;20039;-63
2022/07/08 04:03:27;;;;;;;72.10;53.97;;;31.50;99.90;;;;;;5044516;28;20017;-66
2022/07/08 04:05:53;;;;;;;77.55;56.03;;;31.50;99.90;;;;;;5040799;28;20075;-64
2022/07/08 04:08:20;;;;;;;77.95;56.28;;;31.70;99.90;;;;;;5037807;28;20021;-65
2022/07/08 04:10:46;;;;;;;75.88;56.67;;;31.70;99.90;;;;;;5037505;28;20038;-66
2022/07/08 04:13:13;;;;;;;81.95;61.72;;;31.80;99.90;;;;;;5037651;28;20029;-65
2022/07/08 04:15:40;;;;;;;75.97;59.92;;;31.80;99.90;;;;;;5043785;28;20013;-63
2022/07/08 04:18:06;;;;;;;75.15;56.70;;;31.90;99.90;;;;;;5045798;28;20081;-63
2022/07/08 04:20:33;;;;;;;69.60;54.60;;;31.90;99.90;;;;;;5044951;28;20021;-63
2022/07/08 04:23:00;;;;;;;72.07;55.70;;;32.00;99.90;;;;;;5044169;28;20281;-63
2022/07/08 04:25:27;;;;;;;66.45;53.00;;;32.00;99.90;;;;;;5045575;28;20032;-63
2022/07/08 04:27:53;;;;;;;73.65;52.78;;;32.00;99.90;;;;;;5044891;28;20010;-65
2022/07/08 04:30:20;;;;;;;80.55;57.90;;;32.10;99.90;;;;;;5044052;28;20021;-64
2022/07/08 04:32:46;;;;;;;68.22;50.00;;;32.20;99.90;;;;;;5045622;28;20029;-64
2022/07/08 04:35:13;;;;;;;72.82;54.53;;;32.20;99.90;;;;;;5045719;28;20062;-63
2022/07/08 04:37:39;;;;;;;59.70;47.00;;;32.20;99.90;;;;;;5046452;28;20477;-68
2022/07/08 04:40:07;;;;;;;73.68;53.05;;;32.40;99.40;;;;;;5046091;28;20017;-68
2022/07/08 04:42:33;;;;;;;66.13;52.05;;;32.40;98.80;;;;;;5044388;28;20374;-67
2022/07/08 04:45:00;;;;;;;59.03;46.70;;;32.50;99.50;;;;;;5043381;28;20017;-67
2022/07/08 04:47:26;;;;;;;71.32;57.60;;;32.40;99.20;;;;;;5044922;28;20033;-71
2022/07/08 04:49:53;;;;;;;76.85;60.05;;;32.50;98.30;;;;;;5043831;28;20021;-68
2022/07/08 04:52:20;;;;;;;63.60;48.40;;;32.50;98.50;;;;;;5045814;28;20496;-69
2022/07/08 04:54:46;;;;;;;62.00;48.45;;;32.50;98.80;;;;;;5047228;28;20021;-70
2022/07/08 04:57:13;;;;;;;68.03;51.10;;;32.60;99.00;;;;;;5045376;28;20032;-67
2022/07/08 04:59:39;;;;;;;67.03;49.47;;;32.60;99.20;;;;;;5050889;28;20543;-69
2022/07/08 05:02:06;;;;;;;183.05;133.45;;;32.60;98.50;;;;;;5042459;28;20123;-68
2022/07/08 05:04:32;;;;;;;54.67;46.85;;;32.70;98.50;;;;;;5045508;28;20021;-68
2022/07/08 05:06:59;;;;;;;55.38;45.47;;;32.70;96.70;;;;;;5042657;28;20031;-69
2022/07/08 05:09:25;;;;;;;138.55;113.25;;;32.80;96.30;;;;;;5044534;28;20017;-70
2022/07/08 05:11:52;;;;;;;104.78;87.43;;;32.90;97.30;;;;;;5043215;28;20028;-68
2022/07/08 05:14:18;;;;;;;75.00;60.10;;;32.90;96.60;;;;;;5042215;28;20017;-70
2022/07/08 05:16:45;;;;;;;49.72;39.28;;;32.90;96.20;;;;;;5038412;28;20029;-70
2022/07/08 05:19:12;;;;;;;47.92;38.00;;;32.80;94.30;;;;;;5038524;28;20053;-71
2022/07/08 05:21:38;;;;;;;51.38;40.85;;;32.60;94.80;;;;;;5041415;28;20525;-69
2022/07/08 05:24:06;;;;;;;44.85;37.78;;;32.60;94.90;;;;;;5041433;28;20485;-69
2022/07/08 05:26:32;;;;;;;47.35;37.75;;;32.70;94.50;;;;;;5041225;28;20424;-68
2022/07/08 05:29:00;;;;;;;41.97;35.53;;;32.90;95.30;;;;;;5046015;28;20021;-70
2022/07/08 05:31:27;;;;;;;44.28;36.75;;;32.90;95.30;;;;;;5043486;28;20061;-68
2022/07/08 05:33:53;;;;;;;49.38;37.38;;;32.90;94.50;;;;;;5043829;28;20020;-66
2022/07/08 05:36:20;;;;;;;46.35;37.28;;;32.80;95.30;;;;;;5043503;28;20546;-68
2022/07/08 05:38:46;;;;;;;44.30;35.67;;;32.70;94.20;;;;;;5043546;28;20030;-68
2022/07/08 05:41:13;;;;;;;47.20;36.75;;;32.70;94.90;;;;;;5044067;28;20104;-67
2022/07/08 05:43:39;;;;;;;46.00;35.88;;;32.80;95.70;;;;;;5044233;28;20425;-67
2022/07/08 05:46:06;;;;;;;49.53;35.65;;;32.80;94.50;;;;;;5043268;28;20385;-68
2022/07/08 05:48:33;;;;;;;49.20;38.15;;;32.70;95.00;;;;;;5043526;28;20358;-69
2022/07/08 05:50:59;;;;;;;52.70;41.10;;;32.80;94.80;;;;;;5043787;28;20057;-68
2022/07/08 05:53:26;;;;;;;46.45;39.30;;;32.80;95.40;;;;;;5043220;28;20470;-69
2022/07/08 05:55:52;;;;;;;41.35;34.72;;;33.00;95.80;;;;;;5043446;28;20024;-70
2022/07/08 05:58:19;;;;;;;45.17;36.95;;;32.90;93.70;;;;;;5043500;28;20108;-69
2022/07/08 06:00:45;;;;;;;51.70;40.65;;;33.00;93.80;;;;;;5042152;28;20021;-69
2022/07/08 06:03:12;;;;;;;47.05;39.67;;;33.10;93.70;;;;;;5042774;28;20381;-67
2022/07/08 06:05:39;;;;;;;53.72;40.90;;;33.10;93.40;;;;;;5042190;28;20386;-69
2022/07/08 06:08:05;;;;;;;45.67;36.85;;;33.10;93.10;;;;;;5042772;28;20017;-68
2022/07/08 06:10:33;;;;;;;51.97;38.00;;;33.10;92.40;;;;;;5043710;28;20032;-68
2022/07/08 06:12:59;;;;;;;48.20;37.30;;;33.10;93.30;;;;;;5041513;28;20435;-68
2022/07/08 06:15:26;;;;;;;44.45;37.25;;;32.90;93.50;;;;;;5042052;28;20044;-68
2022/07/08 06:17:53;;;;;;;41.95;37.13;;;32.90;93.50;;;;;;5042901;28;20100;-68
2022/07/08 06:26:49;;;;;;;50.58;40.03;;;32.70;94.00;;;;;;5113459;27;20420;-65
2022/07/08 06:29:16;;;;;;;49.33;41.05;;;32.50;93.50;;;;;;5119329;28;20543;-65
2022/07/08 06:31:42;;;;;;;52.92;41.08;;;32.50;94.50;;;;;;5114336;27;20034;-66
2022/07/08 06:34:09;;;;;;;51.95;43.58;;;32.60;93.50;;;;;;5111184;28;20020;-66
2022/07/08 06:36:35;;;;;;;50.92;41.50;;;32.70;93.50;;;;;;5111551;28;20032;-66
2022/07/08 06:39:02;;;;;;;51.17;41.33;;;32.80;93.80;;;;;;5111156;28;20102;-66
2022/07/08 06:41:28;;;;;;;54.42;43.35;;;32.90;93.70;;;;;;5111138;28;20053;-66
2022/07/08 06:43:55;;;;;;;50.88;42.78;;;33.10;93.60;;;;;;5129275;28;20144;-67
2022/07/08 06:46:21;;;;;;;49.53;39.97;;;33.20;93.70;;;;;;5131427;28;20020;-67
2022/07/08 06:48:48;;;;;;;54.00;40.08;;;33.30;93.40;;;;;;5131100;27;20019;-66
2022/07/08 06:51:15;;;;;;;48.28;39.95;;;33.40;93.10;;;;;;5130791;27;20387;-66
2022/07/08 06:56:28;;;;;;;51.65;41.05;;;33.40;91.70;;;;;;5128314;28;20023;-66
2022/07/08 06:58:54;;;;;;;44.72;38.78;;;33.70;91.30;;;;;;5130881;28;20033;-67
2022/07/08 07:01:21;;;;;;;47.88;39.05;;;33.70;90.80;;;;;;5130815;27;20098;-66
2022/07/08 07:03:47;;;;;;;48.47;39.88;;;33.80;90.30;;;;;;5128487;28;20023;-66
2022/07/08 07:06:14;;;;;;;50.95;41.97;;;33.70;90.10;;;;;;5130268;27;20051;-66
2022/07/08 07:08:41;;;;;;;56.47;43.80;;;33.60;90.60;;;;;;5129986;28;20070;-66
2022/07/08 07:11:07;;;;;;;64.53;47.03;;;33.40;91.40;;;;;;5129608;27;20230;-72
2022/07/08 07:13:34;;;;;;;53.30;39.83;;;32.40;97.00;;;;;;5129459;27;20019;-72
2022/07/08 07:16:00;;;;;;;53.40;41.40;;;31.30;98.20;;;;;;5126817;27;20551;-68
2022/07/08 07:18:27;;;;;;;52.60;42.28;;;31.20;99.90;;;;;;5129716;27;20028;-69
2022/07/08 07:20:54;;;;;;;48.83;40.85;;;31.30;99.90;;;;;;5127502;28;20491;-71
2022/07/08 07:23:20;;;;;;;44.08;37.72;;;31.20;98.50;;;;;;5129732;27;20016;-69
2022/07/08 07:25:47;;;;;;;41.67;36.60;;;31.20;99.90;;;;;;5118889;27;20048;-70
2022/07/08 07:28:13;;;;;;;45.83;37.65;;;31.20;99.90;;;;;;5115205;27;20012;-70
2022/07/08 07:30:40;;;;;;;42.38;37.42;;;31.30;99.90;;;;;;5115996;28;20024;-65
2022/07/08 07:33:06;;;;;;;44.38;37.42;;;31.30;99.70;;;;;;5119615;27;20027;-66
2022/07/08 07:35:33;;;;;;;49.90;43.33;;;31.40;99.70;;;;;;5119201;27;20472;-64
2022/07/08 07:37:59;;;;;;;50.63;41.78;;;31.50;99.90;;;;;;5107801;28;20104;-64
2022/07/08 07:40:26;;;;;;;53.50;45.22;;;31.70;99.90;;;;;;5104292;28;20038;-65
2022/07/08 07:42:53;;;;;;;53.35;44.67;;;31.80;99.50;;;;;;5097657;28;20093;-63
2022/07/08 07:45:19;;;;;;;56.53;45.70;;;31.80;99.60;;;;;;5097174;28;20059;-63
2022/07/08 07:47:46;;;;;;;53.80;47.08;;;32.00;99.90;;;;;;5099137;28;20539;-62
2022/07/08 07:50:12;;;;;;;60.33;45.58;;;32.20;99.70;;;;;;5098980;28;20031;-63
2022/07/08 07:52:39;;;;;;;56.05;45.60;;;32.20;99.90;;;;;;5098080;28;20024;-66
2022/07/08 07:55:08;;;;;;;57.50;44.65;;;32.30;99.20;;;;;;5105084;28;20103;-64
2022/07/08 07:57:36;;;;;;;55.33;45.35;;;32.50;99.80;;;;;;5102080;28;20028;-64
2022/07/08 08:00:09;;;;;;;59.38;46.80;;;32.60;99.20;;;;;;5102879;28;20061;-64
2022/07/08 08:02:35;;;;;;;57.53;45.17;;;32.70;97.40;;;;;;5106010;28;20047;-65
2022/07/08 08:05:02;;;;;;;59.17;46.22;;;32.70;97.80;;;;;;5104359;28;20032;-64
2022/07/08 08:07:29;;;;;;;56.35;46.05;;;32.90;97.40;;;;;;5100242;28;20027;-62
2022/07/08 08:09:55;;;;;;;48.63;42.20;;;33.00;98.30;;;;;;5106209;28;20020;-62
2022/07/08 08:12:22;;;;;;;48.67;39.00;;;33.00;96.30;;;;;;5117015;27;20129;-63
2022/07/08 08:14:48;;;;;;;46.45;40.47;;;32.90;96.20;;;;;;5106276;28;20443;-65
2022/07/08 08:17:15;;;;;;;52.58;41.95;;;32.80;96.90;;;;;;5104474;28;20028;-63
2022/07/08 08:19:41;;;;;;;47.53;37.67;;;32.90;95.80;;;;;;5104908;28;20416;-65
2022/07/08 08:22:08;;;;;;;49.03;39.83;;;33.10;95.00;;;;;;5106507;28;20016;-65
2022/07/08 08:24:34;;;;;;;45.30;38.58;;;33.10;94.40;;;;;;5104435;28;20043;-64
2022/07/08 08:27:01;;;;;;;46.53;37.35;;;33.20;94.50;;;;;;5104761;28;20118;-63
2022/07/08 08:29:27;;;;;;;48.40;39.65;;;33.10;94.50;;;;;;5106294;28;20088;-68
2022/07/08 08:31:54;;;;;;;43.05;36.75;;;33.20;92.90;;;;;;5104701;28;20016;-67
2022/07/08 08:34:21;;;;;;;49.63;35.83;;;33.20;92.80;;;;;;5104348;28;20034;-63
2022/07/08 08:36:47;;;;;;;42.33;36.28;;;33.30;93.00;;;;;;5106258;28;20446;-62
2022/07/08 08:39:14;;;;;;;46.53;34.72;;;33.30;91.90;;;;;;5104157;28;20059;-62
2022/07/08 08:41:41;;;;;;;46.85;37.90;;;33.30;92.10;;;;;;5105149;28;20027;-63
2022/07/08 08:44:09;;;;;;;44.05;36.72;;;33.40;92.70;;;;;;5105682;28;20039;-62
2022/07/08 08:46:36;;;;;;;53.15;38.60;;;33.50;93.20;;;;;;5104627;28;20031;-64
2022/07/08 08:49:03;;;;;;;46.70;36.78;;;33.60;92.10;;;;;;5099848;28;20048;-62
2022/07/08 08:51:32;;;;;;;46.40;38.00;;;33.70;92.70;;;;;;5098347;28;20074;-62
2022/07/08 08:54:02;;;;;;;45.80;36.97;;;33.60;92.90;;;;;;5097935;28;20106;-63
2022/07/08 08:56:29;;;;;;;46.30;36.83;;;33.60;92.40;;;;;;5098197;28;20036;-63
2022/07/08 08:58:56;;;;;;;44.47;35.25;;;33.50;91.20;;;;;;5098039;28;20028;-63
2022/07/08 09:01:24;;;;;;;42.95;33.70;;;33.40;91.80;;;;;;5097826;28;20016;-63
2022/07/08 09:03:51;;;;;;;43.35;32.25;;;33.30;91.90;;;;;;5106896;28;20459;-62
2022/07/08 09:06:17;;;;;;;45.55;35.13;;;33.30;91.20;;;;;;5105148;28;20028;-62
2022/07/08 09:08:44;;;;;;;38.33;31.75;;;33.20;92.40;;;;;;5103273;28;20078;-63
2022/07/08 09:11:10;;;;;;;38.42;30.55;;;33.20;92.10;;;;;;5104623;28;20456;-63
2022/07/08 09:13:37;;;;;;;42.78;32.25;;;33.30;91.20;;;;;;5102684;28;20031;-64
2022/07/08 09:16:03;;;;;;;48.55;32.22;;;33.20;91.20;;;;;;5099917;28;20106;-62
2022/07/08 09:18:32;;;;;;;40.15;32.47;;;33.20;90.50;;;;;;5103981;28;20024;-63
2022/07/08 09:21:00;;;;;;;41.10;31.83;;;33.20;88.30;;;;;;5102652;28;20498;-63
2022/07/08 09:23:29;;;;;;;45.60;32.75;;;33.10;90.60;;;;;;5103496;28;20024;-64
2022/07/08 09:25:57;;;;;;;42.10;31.23;;;33.10;90.00;;;;;;5102967;28;20040;-65
2022/07/08 09:28:44;;;;;;;41.28;33.88;;;33.10;89.70;;;;;;5102821;28;20016;-64
2022/07/08 09:31:14;;;;;;;45.80;34.50;;;33.10;89.40;;;;;;5103717;28;20024;-65
2022/07/08 09:33:42;;;;;;;44.28;32.63;;;33.10;89.00;;;;;;5094445;28;20180;-66
2022/07/08 09:36:10;;;;;;;41.20;31.05;;;33.00;88.70;;;;;;5094362;28;20362;-65
2022/07/08 09:38:40;;;;;;;40.20;30.58;;;33.00;87.80;;;;;;5106070;28;20424;-65
2022/07/08 09:41:13;;;;;;;39.13;30.15;;;33.00;87.30;;;;;;5104048;28;20031;-65
2022/07/08 09:43:50;;;;;;;42.72;33.78;;;33.00;87.40;;;;;;5096826;28;20040;-64
2022/07/08 09:46:17;;;;;;;315.98;197.00;;;32.90;88.80;;;;;;5102916;28;20028;-64
2022/07/08 09:48:44;;;;;;;64.43;49.17;;;32.90;89.30;;;;;;5102616;28;20020;-64
2022/07/08 09:51:14;;;;;;;44.00;32.13;;;32.80;88.70;;;;;;5103285;28;20512;-64
2022/07/08 09:53:43;;;;;;;40.15;32.33;;;32.80;88.50;;;;;;5103784;28;20015;-64
2022/07/08 09:56:10;;;;;;;49.53;35.08;;;32.80;88.20;;;;;;5102166;28;20102;-65
2022/07/08 09:58:37;;;;;;;45.80;36.85;;;32.80;89.40;;;;;;5100320;28;20484;-63
2022/07/08 10:01:04;;;;;;;46.33;34.03;;;32.80;90.10;;;;;;5093660;28;20495;-64
2022/07/08 10:03:31;;;;;;;48.20;38.35;;;32.80;89.60;;;;;;5093807;28;20043;-63
2022/07/08 10:05:57;;;;;;;46.22;37.40;;;32.80;89.20;;;;;;5093707;28;20027;-64
2022/07/08 10:08:24;;;;;;;43.35;33.78;;;32.80;90.10;;;;;;5099093;28;20032;-64
2022/07/08 10:10:53;;;;;;;52.55;35.83;;;32.80;88.50;;;;;;5095187;28;20080;-66
2022/07/08 10:13:20;;;;;;;57.33;39.53;;;32.80;89.80;;;;;;5091432;28;20491;-63
2022/07/08 10:15:52;;;;;;;52.83;34.47;;;32.80;90.10;;;;;;5091484;28;20030;-65
2022/07/08 10:18:26;;;;;;;53.15;37.60;;;32.70;89.50;;;;;;5091550;28;20028;-63
2022/07/08 10:20:55;;;;;;;50.53;37.63;;;32.70;89.30;;;;;;5091416;28;20497;-62
2022/07/08 10:23:30;;;;;;;70.78;50.95;;;32.60;89.50;;;;;;5093203;28;20032;-62
2022/07/08 10:25:59;;;;;;;65.20;45.85;;;32.60;90.30;;;;;;5093034;28;20083;-62
2022/07/08 10:28:37;;;;;;;66.90;44.63;;;32.50;90.60;;;;;;5093263;28;20047;-63
2022/07/08 10:31:23;;;;;;;62.25;47.80;;;32.50;90.70;;;;;;5093391;28;20031;-63
2022/07/08 10:33:50;;;;;;;78.95;55.40;;;32.50;91.40;;;;;;5093243;28;20024;-63
2022/07/08 10:36:24;;;;;;;75.95;57.05;;;32.50;91.60;;;;;;5093266;28;20066;-63
2022/07/08 10:38:51;;;;;;;102.43;72.95;;;32.50;91.90;;;;;;5093335;28;20032;-63
2022/07/08 10:41:20;;;;;;;92.53;63.95;;;32.40;92.00;;;;;;5093098;28;20024;-63
2022/07/08 10:44:01;;;;;;;84.68;58.03;;;32.40;91.90;;;;;;5093564;28;20077;-63
2022/07/08 10:46:28;;;;;;;95.90;66.60;;;32.30;92.40;;;;;;5093493;28;20032;-63
2022/07/08 10:49:03;;;;;;;143.50;101.43;;;32.20;92.50;;;;;;5093250;28;20020;-63
2022/07/08 10:51:31;;;;;;;167.07;109.93;;;32.20;93.00;;;;;;5093173;28;20043;-64
2022/07/08 10:54:01;;;;;;;164.52;115.65;;;32.20;92.90;;;;;;5093202;28;20055;-62
2022/07/08 10:56:48;;;;;;;98.32;65.82;;;32.20;92.80;;;;;;5093219;28;20023;-62
2022/07/08 10:59:28;;;;;;;100.10;57.30;;;32.20;92.30;;;;;;5093225;28;20052;-62
2022/07/08 11:02:02;;;;;;;56.15;40.70;;;32.20;92.00;;;;;;5092961;28;20031;-62
2022/07/08 11:04:37;;;;;;;56.17;40.17;;;32.10;91.40;;;;;;5092866;28;20081;-62
2022/07/08 11:07:27;;;;;;;59.88;37.78;;;32.00;91.80;;;;;;5097783;28;20110;-61
2022/07/08 11:09:57;;;;;;;77.70;44.45;;;32.00;91.90;;;;;;5106133;28;20069;-61
2022/07/08 11:12:30;;;;;;;63.50;40.28;;;32.00;92.00;;;;;;5115370;28;20464;-60
2022/07/08 11:14:58;;;;;;;61.35;39.50;;;32.00;92.00;;;;;;5117406;28;20103;-61
2022/07/08 11:17:34;;;;;;;69.10;44.35;;;32.00;91.90;;;;;;5117449;28;20567;-61
2022/07/08 11:20:19;;;;;;;74.18;47.78;;;32.00;92.10;;;;;;5117116;28;20042;-62
2022/07/08 11:22:47;;;;;;;76.68;47.78;;;32.00;92.20;;;;;;5116765;28;20027;-61
2022/07/08 11:25:16;;;;;;;99.85;60.17;;;31.90;92.20;;;;;;5116528;27;20112;-61
2022/07/08 11:27:43;;;;;;;108.40;68.65;;;31.80;92.40;;;;;;5116916;28;20077;-62
2022/07/08 11:30:13;;;;;;;91.38;62.92;;;31.80;92.30;;;;;;5116856;28;20090;-62
2022/07/08 11:32:40;;;;;;;87.25;57.13;;;31.80;92.40;;;;;;5116452;28;20544;-62
2022/07/08 11:35:08;;;;;;;76.65;49.72;;;31.80;92.80;;;;;;5114989;28;20035;-65
2022/07/08 11:37:40;;;;;;;64.85;41.35;;;31.80;92.70;;;;;;5115508;28;20031;-62
2022/07/08 11:40:07;;;;;;;57.08;39.03;;;31.80;92.20;;;;;;5115888;28;20024;-62
2022/07/08 11:42:38;;;;;;;74.03;53.67;;;31.70;92.40;;;;;;5116032;27;20069;-62
2022/07/08 11:45:07;;;;;;;232.27;152.77;;;31.60;92.30;;;;;;5116005;28;20027;-62
2022/07/08 11:47:34;;;;;;;182.15;120.70;;;31.60;92.60;;;;;;5116345;28;20020;-62
2022/07/08 11:50:00;;;;;;;96.25;65.45;;;31.60;92.60;;;;;;5116537;28;20038;-62
2022/07/08 11:52:28;;;;;;;100.38;68.20;;;31.70;92.50;;;;;;5116550;28;20023;-62
2022/07/08 11:54:57;;;;;;;128.77;83.22;;;31.70;93.00;;;;;;5116264;28;20493;-61
2022/07/08 11:57:24;;;;;;;99.65;66.32;;;31.60;93.10;;;;;;5116433;28;20028;-61
2022/07/08 11:59:50;;;;;;;100.95;71.07;;;31.60;93.40;;;;;;5116381;28;20020;-62
2022/07/08 12:02:20;;;;;;;79.35;55.53;;;31.50;94.00;;;;;;5116318;28;20471;-62
2022/07/08 12:04:49;;;;;;;67.18;48.10;;;31.50;93.90;;;;;;5116013;28;20075;-62
2022/07/08 12:07:26;;;;;;;61.85;41.67;;;31.40;93.80;;;;;;5116175;28;20030;-61
2022/07/08 12:10:04;;;;;;;65.57;42.97;;;31.30;93.90;;;;;;5115936;28;20024;-62
2022/07/08 12:12:32;;;;;;;70.07;43.72;;;31.40;93.60;;;;;;5116119;28;20475;-62
2022/07/08 12:15:11;;;;;;;58.78;43.03;;;31.50;94.10;;;;;;5116044;28;20073;-61
2022/07/08 12:17:38;;;;;;;73.18;47.63;;;31.40;94.80;;;;;;5116044;28;20032;-62
2022/07/08 12:20:05;;;;;;;82.25;52.03;;;31.30;95.00;;;;;;5116083;28;20487;-62
2022/07/08 12:22:51;;;;;;;82.00;54.50;;;31.30;95.40;;;;;;5115776;28;20031;-62
2022/07/08 12:25:19;;;;;;;95.43;59.10;;;31.20;95.40;;;;;;5115367;27;20104;-62
2022/07/08 12:28:03;;;;;;;95.03;56.55;;;31.10;95.40;;;;;;5115835;28;20031;-62
2022/07/08 12:30:31;;;;;;;84.38;51.95;;;31.00;95.40;;;;;;5115783;28;20080;-62
2022/07/08 12:33:02;;;;;;;90.28;52.22;;;31.00;95.00;;;;;;5115766;28;20487;-62
2022/07/08 12:35:31;;;;;;;87.75;52.63;;;31.00;95.10;;;;;;5115643;28;20039;-61
2022/07/08 12:38:10;;;;;;;82.05;51.13;;;31.00;94.30;;;;;;5115613;28;20086;-62
2022/07/08 12:40:39;;;;;;;86.40;53.72;;;31.00;94.40;;;;;;5115459;28;20023;-62